Gas Ray — V7YB4 — position and weather

sailwx.info

Track history (hours):
 
Tides and Currents Weather Stations Pressure Air Temp Water Temp Dewpoint Dewpoint Depression Visibility Wind Speed Wind Dir Waves Ship Positions

Gas Ray

Last reported at 2018-Jan-22 20:00 UTC. Time now 2018-Jan-22 20:28 UTC.
Position S 29°53' E 031°02'.

Length 174 m; draft 9.7 m.

Type: Ship (hazmat cat C). MMSI: 538007171.

Date/timePositionNaut miles runAvg speedWind from/ knotsBaromVisibWave heightAir tempDewpointWater temp
2018-Jan-22 20:00S 29°53' E 031°02'0 0.0
2018-Jan-22 19:30S 29°53' E 031°02'0 0.0
2018-Jan-22 19:01S 29°53' E 031°02'0 0.0
2018-Jan-22 18:31S 29°53' E 031°02'0 0.0
2018-Jan-22 18:00S 29°53' E 031°02'0 0.0
2018-Jan-22 17:30S 29°53' E 031°02'0 0.0
2018-Jan-22 17:01S 29°53' E 031°02'0 0.0
2018-Jan-22 16:30S 29°53' E 031°02'0 0.0
2018-Jan-22 16:00S 29°53' E 031°02'0 0.0
2018-Jan-22 15:31S 29°53' E 031°02'0 0.0
2018-Jan-22 15:00S 29°53' E 031°02'0 0.0
2018-Jan-22 14:30S 29°53' E 031°02'0 0.0
2018-Jan-22 14:01S 29°53' E 031°02'0 0.0
2018-Jan-22 13:30S 29°53' E 031°02'0 0.1
2018-Jan-22 13:01S 29°53' E 031°02'2 3.4
2018-Jan-22 12:30S 29°52' E 031°03'4 7.9
2018-Jan-22 12:00S 29°49' E 031°06'1 2.1
2018-Jan-22 11:30S 29°49' E 031°07'3 6.2
2018-Jan-22 11:00S 29°50' E 031°10'4 7.8
2018-Jan-22 10:30S 29°51' E 031°14'0 0.8
2018-Jan-22 10:00S 29°51' E 031°15'0 0.8
2018-Jan-22 09:30S 29°51' E 031°14'3 6.5
2018-Jan-22 09:01S 29°54' E 031°12'510.8
2018-Jan-22 08:30S 29°59' E 031°15'612.3
2018-Jan-22 08:00S 30°04' E 031°18'4 8.7
2018-Jan-22 07:31S 30°09' E 031°20'4 7.6
2018-Jan-22 07:00S 30°12' E 031°22'5 9.3
2018-Jan-22 06:31S 30°16' E 031°24'5 9.7
2018-Jan-22 06:00S 30°21' E 031°24'611.6
2018-Jan-22 05:30S 30°26' E 031°20'  
Track history (hours):
 
Tides and Currents Weather Stations Pressure Air Temp Water Temp Dewpoint Dewpoint Depression Visibility Wind Speed Wind Dir Waves Ship Positions

Gas Ray

Last reported at 2018-Jan-22 20:00 UTC. Time now 2018-Jan-22 20:28 UTC.
Position S 29°53' E 031°02'.

Length 174 m; draft 9.7 m.

Type: Ship (hazmat cat C). MMSI: 538007171.

Date/timePositionNaut miles runAvg speedWind from/ knotsBaromVisibWave heightAir tempDewpointWater temp
2018-Jan-22 20:00S 29°53' E 031°02'0 0.0
2018-Jan-22 19:30S 29°53' E 031°02'0 0.0
2018-Jan-22 19:01S 29°53' E 031°02'0 0.0
2018-Jan-22 18:31S 29°53' E 031°02'0 0.0
2018-Jan-22 18:00S 29°53' E 031°02'0 0.0
2018-Jan-22 17:30S 29°53' E 031°02'0 0.0
2018-Jan-22 17:01S 29°53' E 031°02'0 0.0
2018-Jan-22 16:30S 29°53' E 031°02'0 0.0
2018-Jan-22 16:00S 29°53' E 031°02'0 0.0
2018-Jan-22 15:31S 29°53' E 031°02'0 0.0
2018-Jan-22 15:00S 29°53' E 031°02'0 0.0
2018-Jan-22 14:30S 29°53' E 031°02'0 0.0
2018-Jan-22 14:01S 29°53' E 031°02'0 0.0
2018-Jan-22 13:30S 29°53' E 031°02'0 0.1
2018-Jan-22 13:01S 29°53' E 031°02'2 3.4
2018-Jan-22 12:30S 29°52' E 031°03'4 7.9
2018-Jan-22 12:00S 29°49' E 031°06'1 2.1
2018-Jan-22 11:30S 29°49' E 031°07'3 6.2
2018-Jan-22 11:00S 29°50' E 031°10'4 7.8
2018-Jan-22 10:30S 29°51' E 031°14'0 0.8
2018-Jan-22 10:00S 29°51' E 031°15'0 0.8
2018-Jan-22 09:30S 29°51' E 031°14'3 6.5
2018-Jan-22 09:01S 29°54' E 031°12'510.8
2018-Jan-22 08:30S 29°59' E 031°15'612.3
2018-Jan-22 08:00S 30°04' E 031°18'4 8.7
2018-Jan-22 07:31S 30°09' E 031°20'4 7.6
2018-Jan-22 07:00S 30°12' E 031°22'5 9.3
2018-Jan-22 06:31S 30°16' E 031°24'5 9.7
2018-Jan-22 06:00S 30°21' E 031°24'611.6
2018-Jan-22 05:30S 30°26' E 031°20'  

Dump ship's entire track history